Time;durP1;ratioP1;P1;durP2;ratioP2;P2;SDS_P1;SDS_P2;PMS_P1;PMS_P2;Temp;Humidity;BMP_temperature;BMP_pressure;BME280_temperature;BME280_humidity;BME280_pressure;Samples;Min_cycle;Max_cycle;Signal;HPM_P1;HPM_P2
2022/09/11 00:00:34;;;;;;;8.07;5.27;;;14.60;99.90;;;;;;4141935;28;20225;-80
2022/09/11 00:02:36;;;;;;;6.13;4.67;;;14.60;99.90;;;;;;4144924;28;20207;-80
2022/09/11 00:04:38;;;;;;;6.57;4.73;;;14.60;99.90;;;;;;4143643;28;20212;-80
2022/09/11 00:06:39;;;;;;;7.37;5.20;;;14.60;99.90;;;;;;4142495;28;20211;-80
2022/09/11 00:08:43;;;;;;;9.97;5.30;;;14.60;99.90;;;;;;4147541;28;20238;-80
2022/09/11 00:10:47;;;;;;;6.87;4.80;;;14.60;99.90;;;;;;4142000;28;20248;-80
2022/09/11 00:12:49;;;;;;;7.73;5.53;;;14.60;99.90;;;;;;4144396;28;20258;-80
2022/09/11 00:14:51;;;;;;;9.53;6.10;;;14.60;99.90;;;;;;4148519;28;20272;-80
2022/09/11 00:16:53;;;;;;;8.13;5.70;;;14.60;99.90;;;;;;4143587;28;20337;-80
2022/09/11 00:18:57;;;;;;;8.77;5.80;;;14.60;99.90;;;;;;4146523;28;20248;-80
2022/09/11 00:20:58;;;;;;;8.47;5.93;;;14.60;99.90;;;;;;4144333;28;20241;-80
2022/09/11 00:23:03;;;;;;;9.33;6.00;;;14.60;99.90;;;;;;4149772;28;20319;-80
2022/09/11 00:25:07;;;;;;;11.37;6.80;;;14.60;99.90;;;;;;4138714;28;20218;-80
2022/09/11 00:27:09;;;;;;;9.47;6.10;;;14.60;99.90;;;;;;4143678;28;20207;-80
2022/09/11 00:29:11;;;;;;;9.90;6.37;;;14.60;99.90;;;;;;4145057;28;20209;-80
2022/09/11 00:31:15;;;;;;;9.23;6.30;;;14.60;99.90;;;;;;4143810;28;20271;-80
2022/09/11 00:33:17;;;;;;;9.57;6.77;;;14.60;99.90;;;;;;4142715;28;20229;-81
2022/09/11 00:35:19;;;;;;;12.73;6.97;;;14.60;99.90;;;;;;4140762;28;20296;-80
2022/09/11 00:37:21;;;;;;;8.83;6.23;;;14.60;99.90;;;;;;4144564;28;20217;-80
2022/09/11 00:39:22;;;;;;;8.70;6.23;;;14.60;99.90;;;;;;4146739;28;20236;-80
2022/09/11 00:41:29;;;;;;;8.27;5.80;;;14.60;99.90;;;;;;4140099;28;20208;-80
2022/09/11 00:43:51;;;;;;;7.93;5.50;;;14.50;99.90;;;;;;4145588;28;20243;-80
2022/09/11 00:45:57;;;;;;;8.33;5.40;;;14.60;99.90;;;;;;4143431;28;20209;-80
2022/09/11 00:48:00;;;;;;;7.23;5.50;;;14.60;99.90;;;;;;4145575;28;20240;-80
2022/09/11 00:50:12;;;;;;;7.97;5.50;;;14.60;99.90;;;;;;4142483;28;20698;-79
2022/09/11 00:52:17;;;;;;;6.67;5.10;;;14.60;99.90;;;;;;4159680;28;20216;-79
2022/09/11 00:54:25;;;;;;;9.03;5.60;;;14.60;99.90;;;;;;4144036;28;20308;-77
2022/09/11 00:56:34;;;;;;;9.67;6.40;;;14.60;99.90;;;;;;4140965;28;20613;-77
2022/09/11 00:58:39;;;;;;;17.57;10.23;;;14.60;99.90;;;;;;4139251;28;20204;-76
2022/09/11 01:00:44;;;;;;;24.47;15.00;;;14.50;99.90;;;;;;4140744;28;20241;-77
2022/09/11 01:02:49;;;;;;;18.37;12.07;;;14.50;99.90;;;;;;4139386;28;20740;-76
2022/09/11 01:04:51;;;;;;;17.93;11.23;;;14.60;99.90;;;;;;4138172;28;20264;-77
2022/09/11 01:06:56;;;;;;;15.17;9.37;;;14.60;99.90;;;;;;4137662;28;20295;-77
2022/09/11 01:08:59;;;;;;;11.30;7.57;;;14.60;99.90;;;;;;4141259;28;20211;-76
2022/09/11 01:11:12;;;;;;;10.13;7.43;;;14.50;99.90;;;;;;4135543;28;20236;-77
2022/09/11 01:13:22;;;;;;;9.47;6.83;;;14.60;99.90;;;;;;4137195;28;20288;-75
2022/09/11 01:15:33;;;;;;;8.97;6.07;;;14.50;99.90;;;;;;4134865;28;20271;-77
2022/09/11 01:17:42;;;;;;;7.90;5.13;;;14.60;99.90;;;;;;4139392;28;20688;-79
2022/09/11 01:20:04;;;;;;;8.77;5.47;;;14.60;99.90;;;;;;4137859;28;20232;-79
2022/09/11 01:22:34;;;;;;;8.73;5.50;;;14.60;99.90;;;;;;4130655;28;20300;-78
2022/09/11 01:24:53;;;;;;;6.73;5.13;;;14.60;99.90;;;;;;4133911;28;20268;-77
2022/09/11 01:27:28;;;;;;;7.00;5.00;;;14.60;99.90;;;;;;4134696;28;20205;-77
2022/09/11 01:29:39;;;;;;;7.53;4.80;;;14.50;99.90;;;;;;4135004;28;20300;-79
2022/09/11 01:31:46;;;;;;;9.03;5.10;;;14.30;99.90;;;;;;4139016;28;20226;-77
2022/09/11 01:33:58;;;;;;;7.60;4.83;;;14.50;99.90;;;;;;4139701;28;20312;-80
2022/09/11 01:36:05;;;;;;;5.40;3.97;;;14.50;99.90;;;;;;4147017;28;20242;-78
2022/09/11 01:38:13;;;;;;;7.23;4.23;;;14.40;99.90;;;;;;4139018;28;20237;-76
2022/09/11 01:40:22;;;;;;;6.73;4.50;;;14.40;99.90;;;;;;4135546;28;20250;-76
2022/09/11 01:42:30;;;;;;;6.60;4.60;;;14.40;99.90;;;;;;4141298;28;20227;-76
2022/09/11 01:44:35;;;;;;;7.33;4.63;;;14.40;99.90;;;;;;4138927;28;20201;-76
2022/09/11 01:46:40;;;;;;;6.07;4.10;;;14.40;99.90;;;;;;4141181;28;20677;-76
2022/09/11 01:48:47;;;;;;;6.50;4.30;;;14.40;99.90;;;;;;4140885;28;20210;-76
2022/09/11 01:50:52;;;;;;;6.00;4.30;;;14.40;99.90;;;;;;4136975;28;20239;-76
2022/09/11 01:52:58;;;;;;;6.73;3.97;;;14.30;99.90;;;;;;4138096;28;20639;-76
2022/09/11 01:55:13;;;;;;;6.57;4.57;;;14.40;99.90;;;;;;4130672;28;20239;-76
2022/09/11 01:57:20;;;;;;;5.97;4.27;;;14.30;99.90;;;;;;4140047;28;20204;-77
2022/09/11 01:59:27;;;;;;;5.90;4.83;;;14.30;99.90;;;;;;4138817;28;20632;-76
2022/09/11 02:01:32;;;;;;;7.03;4.27;;;14.30;99.90;;;;;;4138234;28;20212;-76
2022/09/11 02:03:39;;;;;;;5.97;3.93;;;14.30;99.90;;;;;;4134702;28;20292;-77
2022/09/11 02:05:46;;;;;;;4.93;3.83;;;14.30;99.90;;;;;;4137767;28;20216;-76
2022/09/11 02:07:53;;;;;;;5.83;4.03;;;14.30;99.90;;;;;;4136396;28;20304;-77
2022/09/11 02:09:58;;;;;;;6.03;4.10;;;14.20;99.90;;;;;;4138700;28;20251;-76
2022/09/11 02:12:05;;;;;;;5.07;3.93;;;14.20;99.90;;;;;;4139883;28;20196;-76
2022/09/11 02:14:15;;;;;;;5.17;3.87;;;14.20;99.90;;;;;;4136523;28;20204;-77
2022/09/11 02:16:24;;;;;;;5.57;3.80;;;14.20;99.90;;;;;;4132700;28;20216;-77
2022/09/11 02:18:32;;;;;;;5.90;4.30;;;14.20;99.90;;;;;;4133679;28;20507;-77
2022/09/11 02:20:35;;;;;;;6.47;4.37;;;14.10;99.90;;;;;;4139079;28;20221;-75
2022/09/11 02:22:37;;;;;;;6.67;4.60;;;14.10;99.90;;;;;;4141355;28;20696;-77
2022/09/11 02:24:39;;;;;;;6.23;4.47;;;14.10;99.90;;;;;;4134520;28;20287;-77
2022/09/11 02:26:46;;;;;;;6.73;4.70;;;14.10;99.90;;;;;;4133575;28;20215;-76
2022/09/11 02:28:48;;;;;;;5.37;3.80;;;14.10;99.90;;;;;;4136559;28;20551;-77
2022/09/11 02:30:50;;;;;;;7.03;5.00;;;14.00;99.90;;;;;;4137894;28;20242;-75
2022/09/11 02:32:56;;;;;;;6.50;4.57;;;14.10;99.90;;;;;;4136663;28;20212;-76
2022/09/11 02:34:58;;;;;;;7.00;5.00;;;14.00;99.90;;;;;;4140293;28;20208;-77
2022/09/11 02:37:20;;;;;;;7.03;5.03;;;14.00;99.90;;;;;;4139975;28;20215;-77
2022/09/11 02:39:34;;;;;;;7.27;5.10;;;14.00;99.90;;;;;;4137523;28;20232;-76
2022/09/11 02:41:51;;;;;;;6.40;4.50;;;14.00;99.90;;;;;;4140666;28;20241;-77
2022/09/11 02:44:05;;;;;;;6.00;4.60;;;14.00;99.90;;;;;;4137228;28;20238;-76
2022/09/11 02:46:44;;;;;;;6.07;4.43;;;13.90;99.90;;;;;;4143452;28;20212;-77
2022/09/11 02:48:59;;;;;;;5.93;4.43;;;14.00;99.90;;;;;;4134739;28;20219;-77
2022/09/11 02:51:09;;;;;;;6.67;4.53;;;13.90;99.90;;;;;;4135743;28;20355;-78
2022/09/11 02:53:18;;;;;;;7.60;5.03;;;13.90;99.90;;;;;;4135822;28;20307;-77
2022/09/11 02:55:30;;;;;;;7.27;5.43;;;13.90;99.90;;;;;;4134736;28;20201;-77
2022/09/11 02:57:38;;;;;;;6.23;4.77;;;13.90;99.90;;;;;;4144543;28;20286;-77
2022/09/11 02:59:45;;;;;;;6.10;4.83;;;13.90;99.90;;;;;;4137958;28;20236;-77
2022/09/11 03:01:50;;;;;;;5.67;4.17;;;13.80;99.90;;;;;;4137215;28;20318;-76
2022/09/11 03:03:53;;;;;;;6.73;4.90;;;13.80;99.90;;;;;;4138402;28;20295;-76
2022/09/11 03:05:55;;;;;;;6.70;4.67;;;13.80;99.90;;;;;;4142986;28;20287;-76
2022/09/11 03:07:58;;;;;;;5.77;4.67;;;13.80;99.90;;;;;;4145980;28;20212;-76
2022/09/11 03:10:00;;;;;;;7.97;4.47;;;13.80;99.90;;;;;;4142555;28;20233;-76
2022/09/11 03:12:03;;;;;;;7.40;4.90;;;13.80;99.90;;;;;;4149338;28;20208;-76
2022/09/11 03:14:05;;;;;;;8.20;5.03;;;13.70;99.90;;;;;;4135896;28;20219;-77
2022/09/11 03:16:07;;;;;;;7.87;5.57;;;13.70;99.90;;;;;;4140386;28;20291;-77
2022/09/11 03:18:09;;;;;;;7.10;5.17;;;13.70;99.90;;;;;;4142388;28;20204;-77
2022/09/11 03:20:12;;;;;;;9.03;5.70;;;13.70;99.90;;;;;;4137432;28;20322;-77
2022/09/11 03:22:14;;;;;;;7.10;5.30;;;13.60;99.90;;;;;;4139980;28;20216;-77
2022/09/11 03:24:16;;;;;;;8.87;5.40;;;13.60;99.90;;;;;;4143676;28;20293;-77
2022/09/11 03:26:18;;;;;;;7.77;5.53;;;13.60;99.90;;;;;;4141915;28;20220;-77
2022/09/11 03:28:21;;;;;;;8.73;5.73;;;13.60;99.90;;;;;;4142920;28;20642;-76
2022/09/11 03:30:23;;;;;;;8.53;5.27;;;13.60;99.90;;;;;;4138091;28;20346;-77
2022/09/11 03:32:25;;;;;;;7.83;5.60;;;13.50;99.90;;;;;;4142016;28;20216;-77
2022/09/11 03:34:27;;;;;;;9.10;5.50;;;13.50;99.90;;;;;;4139499;28;20235;-77
2022/09/11 03:36:30;;;;;;;9.33;6.00;;;13.50;99.90;;;;;;4140200;28;20729;-77
2022/09/11 03:38:32;;;;;;;10.97;6.40;;;13.50;99.90;;;;;;4140173;28;20777;-77
2022/09/11 03:40:33;;;;;;;9.30;6.50;;;13.50;99.90;;;;;;4144822;28;20305;-77
2022/09/11 03:42:35;;;;;;;9.80;6.20;;;13.40;99.90;;;;;;4143827;28;20203;-77
2022/09/11 03:44:37;;;;;;;10.70;6.60;;;13.40;99.90;;;;;;4140525;28;20204;-77
2022/09/11 03:46:39;;;;;;;10.90;6.90;;;13.40;99.90;;;;;;4133177;28;20319;-77
2022/09/11 03:48:41;;;;;;;11.43;6.67;;;13.40;99.90;;;;;;4137059;28;20298;-77
2022/09/11 03:50:44;;;;;;;10.20;6.93;;;13.40;99.90;;;;;;4146614;28;20234;-76
2022/09/11 03:52:48;;;;;;;8.90;6.10;;;13.40;99.90;;;;;;4140392;28;20206;-76
2022/09/11 03:54:49;;;;;;;9.97;6.10;;;13.40;99.90;;;;;;4134843;28;20300;-76
2022/09/11 03:56:51;;;;;;;10.40;6.40;;;13.40;99.90;;;;;;4143690;28;20902;-76
2022/09/11 03:58:56;;;;;;;9.50;6.17;;;13.30;99.90;;;;;;4140900;28;20585;-77
2022/09/11 04:00:59;;;;;;;9.30;6.60;;;13.30;99.90;;;;;;4139292;28;20226;-76
2022/09/11 04:03:00;;;;;;;10.63;6.30;;;13.30;99.90;;;;;;4132449;28;20210;-77
2022/09/11 04:05:03;;;;;;;9.70;6.50;;;13.30;99.90;;;;;;4136106;28;20205;-77
2022/09/11 04:07:05;;;;;;;9.67;6.47;;;13.30;99.90;;;;;;4134584;28;20258;-76
2022/09/11 04:09:08;;;;;;;13.43;7.60;;;13.30;99.90;;;;;;4136884;28;20214;-76
2022/09/11 04:11:11;;;;;;;11.23;7.00;;;13.30;99.90;;;;;;4137094;28;20222;-76
2022/09/11 04:13:13;;;;;;;10.90;6.50;;;13.30;99.90;;;;;;4141620;28;20255;-76
2022/09/11 04:15:15;;;;;;;10.37;6.10;;;13.30;99.90;;;;;;4139193;28;20241;-77
2022/09/11 04:17:17;;;;;;;11.30;6.40;;;13.30;99.90;;;;;;4141353;28;20283;-77
2022/09/11 04:19:20;;;;;;;10.17;6.70;;;13.30;99.90;;;;;;4146354;28;20728;-77
2022/09/11 04:21:22;;;;;;;11.83;6.90;;;13.30;99.90;;;;;;4142689;28;20228;-77
2022/09/11 04:23:24;;;;;;;10.80;6.60;;;13.30;99.90;;;;;;4137818;28;20566;-77
2022/09/11 04:25:27;;;;;;;10.70;6.73;;;13.30;99.90;;;;;;4140768;28;20208;-77
2022/09/11 04:27:29;;;;;;;10.10;6.77;;;13.30;99.90;;;;;;4140474;28;20235;-76
2022/09/11 04:29:31;;;;;;;11.70;6.73;;;13.30;99.90;;;;;;4145627;28;20575;-77
2022/09/11 04:31:35;;;;;;;10.87;6.30;;;13.30;99.90;;;;;;4138301;28;20204;-76
2022/09/11 04:33:38;;;;;;;9.87;6.20;;;13.30;99.90;;;;;;4137563;28;20216;-77
2022/09/11 04:35:40;;;;;;;10.47;6.17;;;13.40;99.90;;;;;;4137491;28;20206;-77
2022/09/11 04:37:42;;;;;;;8.83;5.90;;;13.30;99.90;;;;;;4140314;28;20207;-77
2022/09/11 04:39:44;;;;;;;9.27;5.87;;;13.40;99.90;;;;;;4139087;28;20721;-77
2022/09/11 04:41:47;;;;;;;9.63;5.73;;;13.40;99.90;;;;;;4140890;28;20307;-76
2022/09/11 04:43:49;;;;;;;9.40;6.17;;;13.40;99.90;;;;;;4139039;28;20220;-77
2022/09/11 04:45:51;;;;;;;9.67;6.03;;;13.40;99.90;;;;;;4142956;28;20211;-77
2022/09/11 04:47:53;;;;;;;11.07;6.77;;;13.40;99.90;;;;;;4142900;28;20710;-77
2022/09/11 04:49:56;;;;;;;10.47;7.10;;;13.40;99.90;;;;;;4141216;28;20238;-77
2022/09/11 04:52:01;;;;;;;11.17;6.90;;;13.30;99.90;;;;;;4144999;28;20204;-77
2022/09/11 04:54:04;;;;;;;10.47;6.97;;;13.30;99.90;;;;;;4137533;28;20230;-77
2022/09/11 04:56:08;;;;;;;11.67;7.07;;;13.30;99.90;;;;;;4145590;28;20684;-77
2022/09/11 04:58:12;;;;;;;11.07;6.87;;;13.30;99.90;;;;;;4136901;28;20192;-77
2022/09/11 05:00:15;;;;;;;10.83;7.10;;;13.30;99.90;;;;;;4135053;28;20761;-77
2022/09/11 05:02:17;;;;;;;12.37;7.30;;;13.30;99.90;;;;;;4137602;28;20302;-78
2022/09/11 05:04:19;;;;;;;10.03;6.83;;;13.30;99.90;;;;;;4141067;28;20306;-77
2022/09/11 05:06:21;;;;;;;10.33;6.70;;;13.30;99.90;;;;;;4138316;28;20208;-77
2022/09/11 05:08:25;;;;;;;9.80;6.20;;;13.30;99.90;;;;;;4139543;28;20262;-78
2022/09/11 05:10:27;;;;;;;9.33;5.90;;;13.20;99.90;;;;;;4141566;28;20886;-77
2022/09/11 05:12:30;;;;;;;8.77;5.90;;;13.20;99.90;;;;;;4139785;28;20212;-78
2022/09/11 05:14:34;;;;;;;9.33;5.57;;;13.20;99.90;;;;;;4137450;28;20247;-77
2022/09/11 05:16:36;;;;;;;9.03;5.90;;;13.90;99.90;;;;;;4138326;28;20205;-77
2022/09/11 05:18:39;;;;;;;9.63;6.00;;;13.20;99.90;;;;;;4139027;28;20590;-78
2022/09/11 05:20:43;;;;;;;9.33;6.03;;;13.30;99.90;;;;;;4137948;28;20235;-77
2022/09/11 05:22:45;;;;;;;9.00;5.83;;;13.20;99.90;;;;;;4138394;28;20295;-77
2022/09/11 05:24:47;;;;;;;8.40;5.67;;;13.20;99.90;;;;;;4138556;28;20526;-77
2022/09/11 05:26:49;;;;;;;8.60;5.63;;;13.20;99.90;;;;;;4140867;28;20218;-77
2022/09/11 05:28:54;;;;;;;12.63;6.13;;;13.20;99.90;;;;;;4141391;28;20746;-77
2022/09/11 05:30:58;;;;;;;10.33;6.00;;;13.20;99.90;;;;;;4135549;28;20242;-77
2022/09/11 05:33:00;;;;;;;9.50;6.13;;;13.20;99.90;;;;;;4138014;28;20297;-77
2022/09/11 05:35:06;;;;;;;11.03;6.77;;;13.20;99.90;;;;;;4138621;28;20292;-78
2022/09/11 05:37:07;;;;;;;10.13;6.83;;;13.20;99.90;;;;;;4144686;28;20216;-77
2022/09/11 05:39:10;;;;;;;12.43;7.40;;;13.30;99.90;;;;;;4141821;28;20294;-77
2022/09/11 05:41:13;;;;;;;11.57;7.63;;;13.30;99.90;;;;;;4139398;28;20319;-77
2022/09/11 05:43:16;;;;;;;14.07;8.67;;;13.30;99.90;;;;;;4143147;28;20205;-78
2022/09/11 05:45:18;;;;;;;12.50;9.03;;;13.30;99.90;;;;;;4137752;28;20303;-77
2022/09/11 05:47:21;;;;;;;15.57;9.80;;;13.30;99.90;;;;;;4143578;28;20271;-77
2022/09/11 05:49:24;;;;;;;20.80;11.50;;;13.30;99.90;;;;;;4141479;28;20319;-78
2022/09/11 05:51:26;;;;;;;16.47;10.27;;;13.40;99.90;;;;;;4140555;28;20200;-77
2022/09/11 05:53:30;;;;;;;17.13;10.90;;;13.40;99.90;;;;;;4140690;28;20215;-77
2022/09/11 05:55:34;;;;;;;17.23;10.33;;;13.40;99.90;;;;;;4138418;28;20216;-76
2022/09/11 05:57:36;;;;;;;17.10;11.37;;;13.50;99.90;;;;;;4145419;28;20593;-76
2022/09/11 05:59:38;;;;;;;17.87;11.17;;;13.50;99.90;;;;;;4138193;28;20250;-76
2022/09/11 06:01:41;;;;;;;18.23;11.30;;;13.50;99.90;;;;;;4140101;28;20224;-77
2022/09/11 06:03:47;;;;;;;15.63;10.27;;;13.50;99.90;;;;;;4137110;28;20204;-76
2022/09/11 06:05:49;;;;;;;16.80;10.57;;;13.60;99.90;;;;;;4144303;28;20203;-76
2022/09/11 06:07:50;;;;;;;15.70;10.90;;;13.60;99.90;;;;;;4139205;28;20211;-77
2022/09/11 06:09:52;;;;;;;18.10;11.80;;;13.60;99.90;;;;;;4141746;28;20231;-76
2022/09/11 06:11:55;;;;;;;20.57;12.43;;;13.70;99.90;;;;;;4139063;28;20209;-77
2022/09/11 06:13:57;;;;;;;18.53;12.33;;;14.10;99.90;;;;;;4140249;28;20200;-76
2022/09/11 06:15:58;;;;;;;20.93;12.90;;;13.80;99.90;;;;;;4139739;28;20236;-77
2022/09/11 06:18:00;;;;;;;20.57;12.83;;;13.80;99.90;;;;;;4142597;28;20292;-77
2022/09/11 06:20:04;;;;;;;24.03;14.50;;;13.80;99.90;;;;;;4135183;28;20254;-77
2022/09/11 06:22:06;;;;;;;22.90;14.50;;;13.90;99.90;;;;;;4134054;28;20215;-77
2022/09/11 06:24:08;;;;;;;22.93;14.80;;;13.90;99.90;;;;;;4141117;28;20216;-77
2022/09/11 06:26:11;;;;;;;25.03;15.17;;;13.90;99.90;;;;;;4138484;28;20239;-77
2022/09/11 06:28:13;;;;;;;21.57;13.93;;;14.00;99.90;;;;;;4143498;28;20887;-77
2022/09/11 06:30:15;;;;;;;26.43;16.83;;;14.10;99.90;;;;;;4139715;28;20231;-77
2022/09/11 06:32:18;;;;;;;26.77;16.90;;;14.10;99.90;;;;;;4137577;28;20818;-77
2022/09/11 06:34:20;;;;;;;30.93;18.40;;;14.10;99.90;;;;;;4137236;28;20758;-78
2022/09/11 06:36:25;;;;;;;29.57;18.07;;;14.10;99.90;;;;;;4141703;28;20212;-78
2022/09/11 06:38:28;;;;;;;27.87;17.40;;;14.20;99.90;;;;;;4143305;28;20210;-78
2022/09/11 06:40:30;;;;;;;30.30;17.63;;;14.20;99.90;;;;;;4143311;28;20290;-77
2022/09/11 06:42:32;;;;;;;29.10;16.87;;;14.20;99.90;;;;;;4146071;28;20231;-78
2022/09/11 06:44:35;;;;;;;24.83;14.53;;;14.20;99.90;;;;;;4147653;28;20201;-78
2022/09/11 06:46:36;;;;;;;25.23;14.43;;;14.20;99.90;;;;;;4145394;28;20721;-79
2022/09/11 06:48:39;;;;;;;23.10;13.83;;;14.30;99.90;;;;;;4139090;28;20213;-79
2022/09/11 06:50:41;;;;;;;22.33;13.63;;;14.30;99.90;;;;;;4142111;28;20233;-77
2022/09/11 06:52:44;;;;;;;20.17;12.80;;;14.30;99.90;;;;;;4135425;28;20210;-77
2022/09/11 06:54:46;;;;;;;21.10;12.40;;;14.30;99.90;;;;;;4135489;28;20784;-77
2022/09/11 06:56:48;;;;;;;20.60;12.57;;;14.30;99.90;;;;;;4146424;28;20223;-78
2022/09/11 06:58:50;;;;;;;23.83;14.00;;;14.30;99.90;;;;;;4141382;28;20217;-77
2022/09/11 07:00:51;;;;;;;23.63;13.77;;;14.30;99.90;;;;;;4142246;28;20224;-78
2022/09/11 07:02:55;;;;;;;24.70;14.17;;;14.30;99.90;;;;;;4148729;28;20232;-78
2022/09/11 07:04:56;;;;;;;24.67;14.27;;;14.40;99.90;;;;;;4141096;28;20216;-77
2022/09/11 07:06:58;;;;;;;23.10;13.60;;;14.40;99.90;;;;;;4149937;28;20210;-77
2022/09/11 07:09:02;;;;;;;21.63;12.73;;;14.50;99.90;;;;;;4143855;28;20738;-77
2022/09/11 07:11:04;;;;;;;22.87;12.73;;;14.50;99.90;;;;;;4140880;28;20676;-77
2022/09/11 07:13:06;;;;;;;23.30;13.13;;;14.50;99.90;;;;;;4151977;28;20210;-78
2022/09/11 07:15:09;;;;;;;25.77;14.53;;;14.50;99.90;;;;;;4137865;28;20221;-78
2022/09/11 07:17:11;;;;;;;25.37;13.10;;;14.50;99.90;;;;;;4144486;28;20290;-78
2022/09/11 07:19:13;;;;;;;23.30;13.30;;;14.50;99.90;;;;;;4137486;28;20276;-79
2022/09/11 07:21:17;;;;;;;22.60;12.90;;;14.60;99.90;;;;;;4137515;28;20259;-77
2022/09/11 07:23:19;;;;;;;20.80;12.80;;;14.60;99.90;;;;;;4143118;28;20330;-78
2022/09/11 07:25:22;;;;;;;21.93;12.77;;;14.60;99.90;;;;;;4142900;28;20216;-77
2022/09/11 07:27:24;;;;;;;22.67;13.13;;;14.60;99.90;;;;;;4138907;28;20271;-78
2022/09/11 07:29:27;;;;;;;21.87;12.57;;;14.60;99.90;;;;;;4140098;28;20783;-78
2022/09/11 07:31:31;;;;;;;21.87;13.00;;;14.60;99.90;;;;;;4144317;28;20213;-78
2022/09/11 07:33:33;;;;;;;20.57;11.33;;;14.70;99.90;;;;;;4137417;28;21058;-77
2022/09/11 07:35:37;;;;;;;18.60;11.60;;;14.70;99.90;;;;;;4143519;28;20682;-78
2022/09/11 07:37:38;;;;;;;20.60;10.63;;;14.70;99.90;;;;;;4144571;28;20442;-77
2022/09/11 07:39:40;;;;;;;24.03;12.47;;;14.70;99.90;;;;;;4147224;28;20312;-78
2022/09/11 07:41:44;;;;;;;19.23;11.10;;;14.80;99.90;;;;;;4149314;28;20225;-78
2022/09/11 07:43:47;;;;;;;19.83;11.13;;;14.80;99.90;;;;;;4138508;28;20236;-77
2022/09/11 07:45:49;;;;;;;16.13;10.50;;;14.80;99.90;;;;;;4140762;28;20234;-78
2022/09/11 07:47:51;;;;;;;21.20;11.50;;;14.90;99.90;;;;;;4141091;28;20245;-78
2022/09/11 07:49:53;;;;;;;19.03;12.03;;;14.90;99.90;;;;;;4141168;28;20232;-78
2022/09/11 07:51:55;;;;;;;18.43;11.43;;;14.90;99.90;;;;;;4140422;28;20249;-78
2022/09/11 07:53:58;;;;;;;22.93;13.23;;;14.90;99.90;;;;;;4142637;28;20675;-79
2022/09/11 07:56:03;;;;;;;20.03;11.83;;;15.00;99.90;;;;;;4144190;28;20215;-78
2022/09/11 07:58:07;;;;;;;18.47;11.67;;;15.00;99.90;;;;;;4141625;28;20259;-78
2022/09/11 08:00:11;;;;;;;17.30;10.77;;;15.10;99.90;;;;;;4137356;28;20231;-77
2022/09/11 08:02:13;;;;;;;18.50;10.83;;;15.10;99.90;;;;;;4139514;28;20231;-78
2022/09/11 08:04:15;;;;;;;21.30;11.33;;;15.20;99.90;;;;;;4137779;28;20306;-78
2022/09/11 08:06:22;;;;;;;23.73;12.70;;;15.30;99.90;;;;;;4144671;28;20211;-78
2022/09/11 08:08:24;;;;;;;19.50;11.53;;;15.30;99.90;;;;;;4140541;28;20222;-77
2022/09/11 08:10:28;;;;;;;18.80;11.40;;;15.30;99.90;;;;;;4152150;28;20254;-77
2022/09/11 08:12:31;;;;;;;22.10;11.97;;;15.40;99.90;;;;;;4144839;28;20230;-78
2022/09/11 08:14:35;;;;;;;18.23;11.00;;;15.50;99.90;;;;;;4137735;28;20243;-77
2022/09/11 08:16:37;;;;;;;16.80;10.17;;;15.50;99.90;;;;;;4140039;28;20300;-77
2022/09/11 08:18:39;;;;;;;19.93;11.00;;;15.50;99.90;;;;;;4140280;28;20304;-77
2022/09/11 08:20:41;;;;;;;18.27;9.70;;;15.50;99.90;;;;;;4144666;28;20347;-78
2022/09/11 08:22:43;;;;;;;19.47;10.57;;;15.50;99.90;;;;;;4144719;28;20228;-77
2022/09/11 08:24:45;;;;;;;16.37;9.43;;;15.50;99.90;;;;;;4141127;28;20208;-77
2022/09/11 08:26:48;;;;;;;17.40;9.80;;;15.60;99.90;;;;;;4143243;28;20257;-77
2022/09/11 08:28:53;;;;;;;16.40;9.57;;;15.60;99.90;;;;;;4140509;28;20204;-78
2022/09/11 08:30:58;;;;;;;15.57;9.97;;;15.70;99.90;;;;;;4142141;28;20298;-76
2022/09/11 08:33:00;;;;;;;17.23;9.40;;;15.70;99.90;;;;;;4151195;28;20211;-76
2022/09/11 08:35:02;;;;;;;15.70;9.00;;;15.80;99.90;;;;;;4138967;28;20223;-78
2022/09/11 08:37:03;;;;;;;14.70;8.30;;;15.80;99.90;;;;;;4147312;28;20208;-80
2022/09/11 08:39:05;;;;;;;13.47;8.10;;;15.80;99.90;;;;;;4140980;28;20219;-79
2022/09/11 08:41:19;;;;;;;13.87;8.30;;;15.90;99.90;;;;;;4140514;28;20290;-78
2022/09/11 08:43:25;;;;;;;13.73;7.90;;;15.90;99.90;;;;;;4139333;28;20272;-79
2022/09/11 08:45:34;;;;;;;16.77;8.73;;;15.90;99.90;;;;;;4140734;28;20258;-80
2022/09/11 08:47:40;;;;;;;13.80;8.70;;;15.90;99.90;;;;;;4143312;28;20222;-78
2022/09/11 08:49:43;;;;;;;12.73;8.40;;;16.00;99.90;;;;;;4141268;28;20232;-77
2022/09/11 08:51:48;;;;;;;14.47;8.53;;;16.00;99.90;;;;;;4138360;28;20907;-78
2022/09/11 08:53:50;;;;;;;14.03;8.47;;;16.00;99.90;;;;;;4162561;28;20290;-79
2022/09/11 08:55:59;;;;;;;12.07;7.70;;;16.00;99.90;;;;;;4146888;28;20204;-80
2022/09/11 08:58:11;;;;;;;11.40;7.60;;;16.00;99.90;;;;;;4147219;28;20623;-77
2022/09/11 09:00:19;;;;;;;11.93;7.13;;;16.00;99.90;;;;;;4143760;28;20254;-76
2022/09/11 09:02:40;;;;;;;12.47;7.70;;;16.00;99.90;;;;;;4146926;28;20823;-77
2022/09/11 09:05:04;;;;;;;12.43;7.00;;;16.00;99.90;;;;;;4143830;28;20555;-77
2022/09/11 09:07:17;;;;;;;11.17;6.80;;;16.00;99.90;;;;;;4143491;28;20207;-79
2022/09/11 09:09:27;;;;;;;9.57;6.67;;;16.00;99.90;;;;;;4142749;28;20219;-78
2022/09/11 09:11:35;;;;;;;8.80;6.13;;;16.10;99.90;;;;;;4151505;28;20191;-79
2022/09/11 09:13:52;;;;;;;7.80;6.00;;;16.00;99.90;;;;;;4145256;28;20223;-77
2022/09/11 09:16:04;;;;;;;9.23;6.37;;;16.00;99.90;;;;;;4147233;28;20228;-78
2022/09/11 09:18:12;;;;;;;9.20;6.07;;;16.00;99.90;;;;;;4147773;28;20205;-78
2022/09/11 09:20:19;;;;;;;7.27;5.67;;;16.00;99.90;;;;;;4142780;28;20232;-79
2022/09/11 09:22:25;;;;;;;9.17;6.47;;;16.00;99.90;;;;;;4157395;28;20731;-80
2022/09/11 09:24:32;;;;;;;8.50;6.17;;;16.00;99.90;;;;;;4147827;28;20203;-83
2022/09/11 09:26:39;;;;;;;9.77;6.50;;;16.00;99.90;;;;;;4142680;28;20724;-78
2022/09/11 09:28:45;;;;;;;10.93;7.30;;;16.10;99.90;;;;;;4149144;28;20299;-79
2022/09/11 09:30:56;;;;;;;10.40;7.07;;;16.10;99.90;;;;;;4150794;28;20262;-79
2022/09/11 09:33:06;;;;;;;10.67;7.47;;;16.00;99.90;;;;;;4148931;28;20207;-82
2022/09/11 09:35:16;;;;;;;10.70;7.43;;;15.90;99.90;;;;;;4156757;28;20200;-82
2022/09/11 09:37:22;;;;;;;11.27;7.83;;;16.00;99.90;;;;;;4146968;28;20224;-80
2022/09/11 09:39:24;;;;;;;10.37;7.83;;;16.00;99.90;;;;;;4140366;28;20712;-78
2022/09/11 09:41:44;;;;;;;9.70;6.87;;;16.20;99.90;;;;;;4138081;28;20206;-83
2022/09/11 09:43:59;;;;;;;10.47;7.00;;;16.00;99.90;;;;;;4141170;28;20884;-77
2022/09/11 09:46:13;;;;;;;12.00;7.67;;;16.00;99.90;;;;;;4145598;28;20271;-77
2022/09/11 09:48:16;;;;;;;12.63;8.40;;;15.90;99.90;;;;;;4139267;28;20218;-79
2022/09/11 09:50:22;;;;;;;11.87;7.27;;;15.90;99.90;;;;;;4138581;28;20224;-81
2022/09/11 09:52:25;;;;;;;12.83;7.23;;;15.90;99.90;;;;;;4145360;28;20214;-80
2022/09/11 09:54:32;;;;;;;10.07;6.67;;;15.90;99.90;;;;;;4139139;28;20368;-81
2022/09/11 09:56:37;;;;;;;9.80;6.60;;;15.90;99.90;;;;;;4147744;28;20204;-79
2022/09/11 09:58:48;;;;;;;8.77;6.27;;;16.10;99.90;;;;;;4152216;28;20222;-79
2022/09/11 10:00:50;;;;;;;9.73;6.30;;;15.90;99.90;;;;;;4144594;28;20656;-78
2022/09/11 10:02:53;;;;;;;8.30;6.00;;;15.90;99.90;;;;;;4147267;28;20222;-79
2022/09/11 10:05:23;;;;;;;9.27;6.63;;;15.90;99.90;;;;;;4138581;28;20215;-78
2022/09/11 10:07:25;;;;;;;9.57;5.97;;;15.90;99.90;;;;;;4142579;28;20208;-80
2022/09/11 10:09:29;;;;;;;9.07;6.03;;;15.90;99.90;;;;;;4146091;28;20626;-80
2022/09/11 10:11:31;;;;;;;10.20;6.63;;;15.90;99.90;;;;;;4147067;28;20212;-80
2022/09/11 10:13:36;;;;;;;9.87;6.27;;;15.90;99.90;;;;;;4145146;28;20206;-79
2022/09/11 10:15:40;;;;;;;8.27;6.20;;;16.20;99.90;;;;;;4138713;28;20239;-79
2022/09/11 10:17:42;;;;;;;10.90;7.07;;;15.80;99.90;;;;;;4146406;28;20236;-79
2022/09/11 10:19:45;;;;;;;11.20;6.87;;;15.90;99.90;;;;;;4142936;28;20330;-80
2022/09/11 10:21:48;;;;;;;10.47;6.73;;;15.90;99.90;;;;;;4139887;28;20215;-80
2022/09/11 10:23:53;;;;;;;10.43;6.53;;;16.00;99.90;;;;;;4143519;28;20323;-80
2022/09/11 10:25:55;;;;;;;9.30;6.97;;;16.00;99.90;;;;;;4140138;28;20210;-80
2022/09/11 10:28:03;;;;;;;9.00;6.67;;;16.00;99.90;;;;;;4142519;28;20212;-79
2022/09/11 10:30:06;;;;;;;12.07;7.57;;;16.00;99.90;;;;;;4136468;28;20230;-78
2022/09/11 10:32:17;;;;;;;9.93;6.90;;;16.00;99.90;;;;;;4140706;28;20214;-79
2022/09/11 10:34:21;;;;;;;12.03;8.20;;;16.00;99.90;;;;;;4144425;28;20208;-80
2022/09/11 10:36:26;;;;;;;11.37;7.57;;;16.10;99.90;;;;;;4143662;28;20219;-80
2022/09/11 10:38:35;;;;;;;11.53;7.80;;;16.00;99.90;;;;;;4145888;28;20725;-79
2022/09/11 10:40:39;;;;;;;11.90;7.50;;;16.10;99.90;;;;;;4145210;28;20227;-79
2022/09/11 10:42:41;;;;;;;13.57;8.40;;;16.00;99.90;;;;;;4148242;28;20218;-79